Time;durP1;ratioP1;P1;durP2;ratioP2;P2;SDS_P1;SDS_P2;PMS_P1;PMS_P2;Temp;Humidity;BMP_temperature;BMP_pressure;BME280_temperature;BME280_humidity;BME280_pressure;Samples;Min_cycle;Max_cycle;Signal;HPM_P1;HPM_P2
2022/06/28 00:01:49;;;;;;;15.95;7.93;;;;;;;15.82;100.00;101698.16;6198784;28;20053;-77
2022/06/28 00:04:51;;;;;;;12.93;7.40;;;;;;;15.76;100.00;101704.69;6199162;28;20053;-76
2022/06/28 00:07:52;;;;;;;16.40;7.30;;;;;;;15.75;100.00;101707.41;6199173;28;20054;-77
2022/06/28 00:10:53;;;;;;;12.45;7.85;;;;;;;15.72;100.00;101713.75;6198663;28;20054;-77
2022/06/28 00:13:55;;;;;;;12.02;7.32;;;;;;;15.70;100.00;101702.38;6196864;28;20050;-76
2022/06/28 00:16:57;;;;;;;12.35;8.20;;;;;;;15.69;100.00;101709.47;6198575;28;20545;-77
2022/06/28 00:19:59;;;;;;;12.82;7.85;;;;;;;15.65;100.00;101710.59;6198543;28;20513;-77
2022/06/28 00:23:00;;;;;;;12.38;8.35;;;;;;;15.62;100.00;101716.03;6198768;28;20062;-77
2022/06/28 00:26:02;;;;;;;13.25;7.63;;;;;;;15.63;100.00;101720.41;6198538;28;20525;-76
2022/06/28 00:29:03;;;;;;;12.68;8.00;;;;;;;15.62;100.00;101729.28;6198801;28;20053;-76
2022/06/28 00:32:07;;;;;;;12.68;7.85;;;;;;;15.62;100.00;101733.72;6196869;28;20047;-78
2022/06/28 00:35:09;;;;;;;11.13;7.63;;;;;;;15.62;100.00;101742.53;6198356;28;20057;-76
2022/06/28 00:38:10;;;;;;;16.00;7.55;;;;;;;15.62;100.00;101744.34;6198632;28;20050;-76
2022/06/28 00:41:12;;;;;;;19.45;7.07;;;;;;;15.62;100.00;101754.94;6198025;28;20508;-76
2022/06/28 00:44:14;;;;;;;13.27;7.50;;;;;;;15.59;100.00;101765.72;6177004;28;20506;-76
2022/06/28 00:47:16;;;;;;;12.20;7.03;;;;;;;15.59;100.00;101776.31;6171097;28;20061;-76
2022/06/28 00:50:19;;;;;;;11.38;7.35;;;;;;;15.53;100.00;101781.97;6152528;28;20384;-76
2022/06/28 00:53:20;;;;;;;12.88;6.70;;;;;;;15.51;100.00;101797.09;6152372;28;20130;-76
2022/06/28 00:56:22;;;;;;;10.15;5.60;;;;;;;15.49;100.00;101802.50;6165542;28;20054;-77
2022/06/28 00:59:23;;;;;;;10.95;6.03;;;;;;;15.45;100.00;101806.25;6174249;28;20523;-77
2022/06/28 01:02:26;;;;;;;13.05;6.05;;;;;;;15.45;100.00;101800.97;6173462;28;20050;-76
2022/06/28 01:05:29;;;;;;;10.50;6.28;;;;;;;15.35;100.00;101813.88;6173860;28;20051;-76
2022/06/28 01:08:30;;;;;;;11.50;6.65;;;;;;;15.33;100.00;101823.69;6173830;28;20043;-76
2022/06/28 01:11:32;;;;;;;11.40;6.65;;;;;;;15.28;100.00;101825.75;6173357;28;20486;-76
2022/06/28 02:42:28;;;;;;;14.13;7.50;;;;;;;14.63;100.00;101838.97;6176025;28;20047;-77
2022/06/28 02:45:31;;;;;;;14.43;7.95;;;;;;;14.64;100.00;101843.34;6176345;28;20055;-77
2022/06/28 02:48:33;;;;;;;14.27;7.88;;;;;;;14.63;100.00;101846.91;6177016;28;20058;-77
2022/06/28 02:51:34;;;;;;;14.98;8.15;;;;;;;14.57;100.00;101849.00;6172018;28;20047;-77
2022/06/28 02:54:37;;;;;;;12.75;7.40;;;;;;;14.55;100.00;101857.03;6175962;28;20434;-77
2022/06/28 02:57:39;;;;;;;14.40;8.68;;;;;;;14.55;100.00;101859.69;6168835;28;20058;-77
2022/06/28 03:00:40;;;;;;;11.43;6.85;;;;;;;14.50;100.00;101859.06;6152283;29;20051;-77
2022/06/28 03:03:41;;;;;;;12.93;7.72;;;;;;;14.50;100.00;101861.72;6152264;29;20495;-78
2022/06/28 03:06:43;;;;;;;11.55;6.63;;;;;;;14.53;100.00;101858.91;6176357;28;20047;-77
2022/06/28 03:09:45;;;;;;;11.43;6.75;;;;;;;14.50;100.00;101864.38;6168819;28;20058;-77
2022/06/28 03:12:47;;;;;;;14.93;7.03;;;;;;;14.49;100.00;101867.06;6176263;28;20430;-77
2022/06/28 03:15:49;;;;;;;15.60;7.53;;;;;;;14.42;100.00;101870.00;6176243;28;20138;-77
2022/06/28 03:18:50;;;;;;;15.93;8.90;;;;;;;14.44;100.00;101869.91;6176163;28;20050;-76
2022/06/28 03:21:52;;;;;;;15.48;8.63;;;;;;;14.41;100.00;101872.75;6175890;28;20043;-77
2022/06/28 03:24:54;;;;;;;17.25;9.68;;;;;;;14.42;100.00;101879.75;6175697;28;20487;-77
2022/06/28 03:27:56;;;;;;;14.93;9.52;;;;;;;14.47;100.00;101880.34;6176474;28;20054;-77
2022/06/28 03:30:57;;;;;;;16.08;9.15;;;;;;;14.47;100.00;101888.28;6175500;28;20061;-77
2022/06/28 03:33:58;;;;;;;16.15;9.35;;;;;;;14.48;100.00;101895.31;6175473;28;20595;-77
2022/06/28 03:37:00;;;;;;;16.90;9.07;;;;;;;14.50;100.00;101888.19;6175726;28;20423;-77
2022/06/28 03:40:03;;;;;;;13.85;8.52;;;;;;;14.55;100.00;101891.44;6175373;28;20051;-77
2022/06/28 03:43:06;;;;;;;15.32;8.93;;;;;;;14.52;100.00;101893.38;6175654;28;20051;-77
2022/06/28 03:46:07;;;;;;;17.75;8.50;;;;;;;14.49;100.00;101898.81;6175342;28;20078;-77
2022/06/28 03:49:08;;;;;;;10.20;6.80;;;;;;;14.43;100.00;101892.88;6175473;28;20050;-77
2022/06/28 03:52:10;;;;;;;12.73;7.20;;;;;;;14.47;100.00;101898.88;6176032;28;20054;-77
2022/06/28 03:55:13;;;;;;;11.80;6.68;;;;;;;14.43;100.00;101905.25;6174956;28;20388;-76
2022/06/28 03:58:14;;;;;;;12.35;7.53;;;;;;;14.40;100.00;101903.63;6175101;28;20526;-77
2022/06/28 04:01:15;;;;;;;12.88;8.35;;;;;;;14.36;100.00;101909.16;6175009;28;20058;-76
2022/06/28 04:04:17;;;;;;;15.38;7.22;;;;;;;14.38;100.00;101909.91;6173901;28;20053;-77
2022/06/28 04:07:18;;;;;;;13.32;7.70;;;;;;;14.41;100.00;101913.25;6174626;28;20051;-77
2022/06/28 04:10:21;;;;;;;14.35;8.25;;;;;;;14.40;100.00;101918.66;6174687;28;20055;-77
2022/06/28 04:13:22;;;;;;;14.07;8.25;;;;;;;14.39;100.00;101925.69;6175085;28;20054;-77
2022/06/28 04:16:24;;;;;;;14.93;8.43;;;;;;;14.37;100.00;101924.94;6174761;28;20514;-77
2022/06/28 04:19:25;;;;;;;12.52;7.75;;;;;;;14.34;100.00;101918.94;6175364;28;20057;-77
2022/06/28 04:22:26;;;;;;;12.73;8.20;;;;;;;14.35;100.00;101926.81;6176092;28;20490;-77
2022/06/28 04:25:29;;;;;;;13.50;7.18;;;;;;;14.33;100.00;101933.94;6174622;28;20525;-77
2022/06/28 04:28:30;;;;;;;11.40;6.80;;;;;;;14.30;100.00;101936.72;6175062;28;20051;-77
2022/06/28 04:31:33;;;;;;;12.75;7.50;;;;;;;14.27;100.00;101933.41;6174524;28;20084;-77
2022/06/28 04:34:34;;;;;;;13.57;7.38;;;;;;;14.26;100.00;101932.56;6174658;28;20137;-77
2022/06/28 04:37:35;;;;;;;14.23;8.05;;;;;;;14.24;100.00;101929.13;6175274;28;20062;-77
2022/06/28 04:40:38;;;;;;;11.93;7.22;;;;;;;14.16;100.00;101926.84;6174377;28;20418;-77
2022/06/28 04:43:40;;;;;;;11.05;6.40;;;;;;;14.18;100.00;101924.16;6174278;28;20073;-76
2022/06/28 04:46:41;;;;;;;13.68;7.45;;;;;;;14.15;100.00;101940.16;6166766;28;20058;-77
2022/06/28 04:49:42;;;;;;;15.60;7.05;;;;;;;14.17;100.00;101935.63;6166022;28;20055;-77
2022/06/28 04:52:43;;;;;;;16.98;7.50;;;;;;;14.14;100.00;101922.59;6185937;28;20053;-76
2022/06/28 04:55:46;;;;;;;11.88;6.15;;;;;;;14.07;100.00;101937.03;6178168;28;20073;-77
2022/06/28 04:58:47;;;;;;;10.98;6.85;;;;;;;14.09;100.00;101932.53;6167006;28;20062;-76
2022/06/28 05:01:49;;;;;;;12.15;7.03;;;;;;;14.12;100.00;101933.22;6174312;28;20055;-76
2022/06/28 05:04:50;;;;;;;15.25;7.75;;;;;;;14.17;100.00;101941.81;6174031;28;20050;-77
2022/06/28 05:07:51;;;;;;;11.57;6.20;;;;;;;14.19;100.00;101936.44;6166514;28;20055;-77
2022/06/28 05:10:54;;;;;;;12.98;6.13;;;;;;;14.20;100.00;101941.63;6173882;28;20054;-77
2022/06/28 05:13:55;;;;;;;10.35;6.47;;;;;;;14.25;100.00;101933.47;6173562;28;20490;-77
2022/06/28 05:16:57;;;;;;;11.85;6.00;;;;;;;14.29;100.00;101942.13;6173989;28;20050;-77
2022/06/28 05:19:58;;;;;;;12.68;8.05;;;;;;;14.31;100.00;101948.19;6173712;28;20443;-77
2022/06/28 05:22:59;;;;;;;11.60;6.80;;;;;;;14.33;100.00;101939.25;6174567;28;20517;-77
2022/06/28 05:26:02;;;;;;;11.85;6.68;;;;;;;14.36;100.00;101939.09;6173524;28;20061;-77
2022/06/28 05:29:03;;;;;;;16.20;7.70;;;;;;;14.42;100.00;101935.28;6174119;28;20051;-77
2022/06/28 05:32:05;;;;;;;11.55;5.85;;;;;;;14.49;100.00;101943.78;6173409;28;20054;-77
2022/06/28 05:35:07;;;;;;;11.38;6.45;;;;;;;14.52;100.00;101935.69;6173595;28;20061;-77
2022/06/28 05:38:09;;;;;;;11.13;6.47;;;;;;;14.59;100.00;101934.47;6174168;28;20046;-77
2022/06/28 05:41:11;;;;;;;10.98;6.55;;;;;;;14.67;100.00;101938.44;6173379;28;20058;-77
2022/06/28 05:44:14;;;;;;;10.10;6.25;;;;;;;14.70;100.00;101930.31;6173486;28;20631;-77
2022/06/28 05:47:15;;;;;;;14.23;7.25;;;;;;;14.71;100.00;101929.38;6174064;28;20050;-77
2022/06/28 05:50:18;;;;;;;11.05;6.22;;;;;;;14.80;100.00;101932.47;6173363;28;20054;-77
2022/06/28 05:53:19;;;;;;;15.73;7.30;;;;;;;14.86;100.00;101938.34;6174108;28;20574;-77
2022/06/28 05:56:22;;;;;;;14.10;7.18;;;;;;;14.93;100.00;101934.41;6174645;28;20050;-77
2022/06/28 05:59:23;;;;;;;13.48;7.03;;;;;;;14.98;100.00;101927.06;6173399;28;20047;-77
2022/06/28 06:02:25;;;;;;;8.40;5.65;;;;;;;15.05;100.00;101930.28;6173240;28;20073;-77
2022/06/28 06:05:26;;;;;;;12.50;6.63;;;;;;;15.11;100.00;101931.72;6173905;28;20047;-77
2022/06/28 06:08:27;;;;;;;10.48;5.78;;;;;;;15.15;100.00;101931.47;6173803;28;20057;-77
2022/06/28 06:11:30;;;;;;;9.13;6.00;;;;;;;15.19;100.00;101932.19;6175587;28;20529;-76
2022/06/28 06:14:32;;;;;;;7.68;4.57;;;;;;;15.26;100.00;101933.56;6177485;28;20049;-77
2022/06/28 06:17:33;;;;;;;8.35;5.05;;;;;;;15.31;100.00;101942.13;6178549;28;20054;-77
2022/06/28 06:20:34;;;;;;;12.02;6.25;;;;;;;15.35;100.00;101942.78;6177585;28;20521;-76
2022/06/28 06:23:36;;;;;;;9.93;5.82;;;;;;;15.37;100.00;101943.56;6179015;28;20043;-77
2022/06/28 06:26:38;;;;;;;7.63;4.90;;;;;;;15.38;100.00;101943.47;6177177;28;20051;-77
2022/06/28 06:29:41;;;;;;;11.75;5.22;;;;;;;15.41;100.00;101938.03;6177821;28;20498;-76
2022/06/28 06:32:42;;;;;;;9.13;4.18;;;;;;;15.43;100.00;101938.78;6178046;28;20057;-77
2022/06/28 06:35:43;;;;;;;8.48;4.55;;;;;;;15.48;100.00;101947.34;6177744;28;20054;-76
2022/06/28 06:38:46;;;;;;;10.20;5.35;;;;;;;15.52;100.00;101940.06;6177543;28;20423;-77
2022/06/28 06:41:48;;;;;;;6.13;4.22;;;;;;;15.54;100.00;101942.66;6177305;28;20065;-76
2022/06/28 06:44:50;;;;;;;13.15;4.65;;;;;;;15.60;100.00;101951.13;6177497;28;20050;-78
2022/06/28 06:47:51;;;;;;;7.20;4.80;;;;;;;15.62;100.00;101943.06;6177495;28;20061;-77
2022/06/28 06:50:52;;;;;;;9.18;3.95;;;;;;;15.67;100.00;101944.59;6177277;28;20423;-77
2022/06/28 06:53:54;;;;;;;6.78;4.50;;;;;;;15.74;100.00;101960.97;6177565;28;20046;-77
2022/06/28 06:56:56;;;;;;;6.80;3.92;;;;;;;15.79;100.00;101948.31;6177237;28;20051;-77
2022/06/28 06:59:58;;;;;;;7.80;4.40;;;;;;;15.86;100.00;101947.06;6174904;28;20426;-77
2022/06/28 07:03:02;;;;;;;5.65;2.90;;;;;;;15.95;100.00;101954.50;6169358;28;20046;-77
2022/06/28 07:06:03;;;;;;;6.30;3.35;;;;;;;15.98;100.00;101949.00;6176644;28;20522;-77
2022/06/28 07:09:05;;;;;;;4.85;3.45;;;;;;;16.05;100.00;101949.50;6177347;28;20058;-77
2022/06/28 07:12:08;;;;;;;4.95;3.00;;;;;;;16.08;100.00;101953.78;6176840;28;20058;-77
2022/06/28 07:15:10;;;;;;;5.38;3.63;;;;;;;16.09;100.00;101951.06;6176965;28;20502;-77
2022/06/28 07:18:12;;;;;;;4.40;2.47;;;;;;;16.16;100.00;101949.72;6176705;28;20077;-76
2022/06/28 07:21:13;;;;;;;3.50;1.85;;;;;;;16.26;100.00;101946.56;6175546;28;20051;-77
2022/06/28 07:24:14;;;;;;;3.78;2.63;;;;;;;16.37;100.00;101957.41;6177231;28;20046;-76
2022/06/28 07:27:17;;;;;;;4.78;2.67;;;;;;;16.40;100.00;101954.59;6200357;28;20414;-76
2022/06/28 07:30:18;;;;;;;5.00;2.92;;;;;;;16.43;100.00;101952.59;6199864;28;20057;-76
2022/06/28 07:33:20;;;;;;;5.40;2.20;;;;;;;16.45;100.00;101950.72;6200292;28;20050;-76
2022/06/28 07:36:21;;;;;;;4.55;2.13;;;;;;;16.52;100.00;101948.53;6200140;28;20393;-76
2022/06/28 07:39:22;;;;;;;6.05;2.08;;;;;;;16.53;100.00;101946.75;6199959;28;20521;-76
2022/06/28 07:42:25;;;;;;;2.70;1.67;;;;;;;16.52;100.00;101953.00;6199234;28;20050;-76
2022/06/28 07:45:27;;;;;;;2.15;1.70;;;;;;;16.58;100.00;101955.28;6199308;28;20438;-76
2022/06/28 07:48:28;;;;;;;4.38;2.00;;;;;;;16.73;100.00;101952.63;6200046;28;20046;-75
2022/06/28 07:54:48;;;;;;;4.72;2.15;;;;;;;16.96;100.00;101951.22;6197434;28;20043;-76
2022/06/28 07:57:51;;;;;;;6.35;3.35;;;;;;;17.09;100.00;101951.34;6199573;28;20050;-75
2022/06/28 08:00:53;;;;;;;2.65;2.03;;;;;;;17.20;100.00;101946.19;6198943;28;20050;-76
2022/06/28 08:03:55;;;;;;;4.40;2.47;;;;;;;17.24;100.00;101957.50;6198975;28;20043;-75
2022/06/28 08:06:58;;;;;;;3.60;2.00;;;;;;;17.20;100.00;101953.31;6199145;28;20046;-76
2022/06/28 08:09:59;;;;;;;4.45;2.25;;;;;;;17.13;100.00;101955.50;6198996;28;20500;-76
2022/06/28 08:13:02;;;;;;;2.97;2.00;;;;;;;17.15;100.00;101950.94;6179369;28;20054;-75
2022/06/28 08:16:04;;;;;;;6.50;2.22;;;;;;;17.31;100.00;101952.66;6175893;28;20066;-76
2022/06/28 08:19:05;;;;;;;4.63;2.50;;;;;;;17.42;99.28;101959.00;6175821;28;20058;-77
2022/06/28 08:22:07;;;;;;;2.22;2.00;;;;;;;17.56;97.17;101963.44;6175280;28;20573;-76
2022/06/28 08:25:09;;;;;;;3.72;2.03;;;;;;;17.59;97.15;101957.94;6176458;28;20057;-77
2022/06/28 08:28:12;;;;;;;4.25;1.60;;;;;;;17.60;98.88;101950.81;6200887;28;20392;-77
2022/06/28 08:31:13;;;;;;;3.20;1.48;;;;;;;17.60;96.01;101967.63;6200185;28;20057;-77
2022/06/28 08:34:14;;;;;;;3.03;1.70;;;;;;;17.64;93.75;101962.97;6187352;28;20063;-77
2022/06/28 08:37:16;;;;;;;4.82;2.03;;;;;;;17.67;96.92;101960.13;6181847;28;20053;-77
2022/06/28 08:40:18;;;;;;;4.10;1.77;;;;;;;17.82;92.28;101959.16;6174262;28;20462;-77
2022/06/28 08:43:21;;;;;;;1.85;1.20;;;;;;;17.97;91.72;101958.16;6175645;28;20499;-77
2022/06/28 08:46:24;;;;;;;5.38;1.75;;;;;;;18.04;91.93;101953.31;6172840;28;20058;-77
2022/06/28 08:49:34;;;;;;;4.53;1.40;;;;;;;18.05;87.47;101956.81;6186366;28;20632;-77
2022/06/28 08:52:36;;;;;;;5.10;1.30;;;;;;;17.97;89.68;101954.66;6172964;28;20047;-77
2022/06/28 08:55:37;;;;;;;5.03;1.17;;;;;;;17.91;86.05;101952.41;6164405;28;20075;-77
2022/06/28 08:58:43;;;;;;;1.23;1.00;;;;;;;17.91;87.33;101955.91;6175497;28;20058;-78
2022/06/28 09:01:44;;;;;;;7.35;1.45;;;;;;;18.05;85.78;101948.84;6155479;28;20065;-77
2022/06/28 09:04:50;;;;;;;3.25;1.20;;;;;;;18.20;85.76;101946.00;6174266;28;20047;-78
2022/06/28 09:07:54;;;;;;;5.22;2.03;;;;;;;18.18;85.99;101958.56;6180999;28;20054;-77
2022/06/28 09:10:55;;;;;;;1.80;0.73;;;;;;;18.21;85.76;101946.84;6186445;28;20184;-76
2022/06/28 09:13:58;;;;;;;2.53;0.98;;;;;;;18.30;84.19;101948.06;6175078;28;20050;-77
2022/06/28 09:17:18;;;;;;;1.20;0.75;;;;;;;18.39;82.36;101937.63;6183139;28;20114;-76
2022/06/28 09:20:19;;;;;;;1.38;0.90;;;;;;;18.57;81.19;101942.69;6198054;28;20053;-75
2022/06/28 09:23:23;;;;;;;2.90;0.98;;;;;;;18.63;78.58;101935.16;6198519;28;20490;-75
2022/06/28 09:26:24;;;;;;;1.52;0.98;;;;;;;18.59;79.15;101941.63;6197882;28;20058;-76
2022/06/28 09:29:27;;;;;;;1.23;1.10;;;;;;;18.49;81.14;101932.56;6198286;28;20482;-76
2022/06/28 09:32:30;;;;;;;2.92;0.82;;;;;;;18.58;79.52;101931.09;6180836;28;20055;-77
2022/06/28 09:35:31;;;;;;;3.78;1.17;;;;;;;18.71;79.11;101934.63;6173180;28;20047;-74
2022/06/28 09:38:33;;;;;;;1.38;1.02;;;;;;;18.87;78.07;101926.44;6173732;28;20513;-77
2022/06/28 09:41:34;;;;;;;1.88;1.05;;;;;;;18.97;79.56;101933.69;6173561;28;20043;-76
2022/06/28 09:44:37;;;;;;;2.67;0.90;;;;;;;19.06;79.08;101923.34;6174880;28;20415;-77
2022/06/28 09:47:43;;;;;;;0.95;0.85;;;;;;;19.11;78.71;101935.38;6178595;28;20134;-76
2022/06/28 09:50:45;;;;;;;1.95;1.05;;;;;;;19.19;76.64;101927.69;6176724;28;20414;-77
2022/06/28 09:53:47;;;;;;;1.52;1.08;;;;;;;19.29;76.50;101924.38;6176628;28;20046;-78
2022/06/28 09:56:54;;;;;;;4.47;1.25;;;;;;;19.39;75.39;101918.28;6185719;28;20058;-79
2022/06/28 09:59:58;;;;;;;2.63;1.15;;;;;;;19.43;75.64;101921.56;6186054;28;20051;-78
2022/06/28 10:03:00;;;;;;;5.18;1.85;;;;;;;19.42;74.61;101930.53;6187147;28;20051;-78
2022/06/28 10:06:02;;;;;;;0.73;0.73;;;;;;;19.49;77.04;101922.00;6185320;28;20047;-78
2022/06/28 10:09:05;;;;;;;1.60;0.90;;;;;;;19.64;69.29;101924.56;6179285;28;20047;-77
2022/06/28 10:15:28;;;;;;;;;;;;;;;19.44;70.66;101923.28;6206352;28;20105;-78
2022/06/28 10:18:31;;;;;;;0.90;0.70;;;;;;;19.29;71.30;101916.38;6209123;28;20011;-78
2022/06/28 10:22:07;;;;;;;4.13;1.05;;;;;;;19.18;75.60;101925.16;6207514;28;20058;-78
2022/06/28 10:25:17;;;;;;;2.88;1.10;;;;;;;19.16;72.71;101925.25;6207306;28;20046;-78
2022/06/28 10:28:29;;;;;;;1.85;0.88;;;;;;;19.27;73.20;101921.84;6207706;28;20050;-78
2022/06/28 10:31:37;;;;;;;3.90;1.13;;;;;;;19.41;72.52;101926.19;6206179;28;20061;-78
2022/06/28 10:34:51;;;;;;;1.73;1.00;;;;;;;19.36;75.91;101921.19;6206843;28;20673;-78
2022/06/28 10:38:17;;;;;;;1.83;1.02;;;;;;;19.28;74.95;101920.88;6208307;28;20137;-78
2022/06/28 10:41:19;;;;;;;0.85;0.82;;;;;;;19.44;72.97;101917.94;6208480;28;20057;-78
2022/06/28 10:44:22;;;;;;;2.90;1.52;;;;;;;19.50;70.18;101915.69;6205162;28;20081;-78
2022/06/28 10:47:25;;;;;;;4.28;1.10;;;;;;;19.53;71.78;101909.31;6206126;28;20502;-78
2022/06/28 10:50:26;;;;;;;1.40;1.10;;;;;;;19.57;74.04;101907.25;6205630;28;20054;-78
2022/06/28 10:53:32;;;;;;;1.85;1.40;;;;;;;19.50;69.53;101899.69;6205624;28;20042;-78
2022/06/28 10:56:38;;;;;;;2.65;1.38;;;;;;;19.61;73.22;101900.75;6205273;28;20061;-78
2022/06/28 10:59:40;;;;;;;1.30;0.93;;;;;;;19.79;71.92;101911.91;6206982;28;20054;-78
2022/06/28 11:03:00;;;;;;;1.42;0.93;;;;;;;20.17;66.75;101906.41;6205833;28;20054;-78
2022/06/28 11:06:02;;;;;;;1.75;1.35;;;;;;;20.26;65.33;101908.38;6206689;28;20049;-79
2022/06/28 11:09:09;;;;;;;1.70;1.15;;;;;;;19.99;65.99;101903.28;6207780;28;20082;-78
2022/06/28 11:12:12;;;;;;;1.35;0.75;;;;;;;19.79;67.43;101896.75;6206678;28;20054;-78
2022/06/28 11:15:35;;;;;;;1.65;1.20;;;;;;;19.70;67.44;101898.25;6204960;28;20046;-78
2022/06/28 11:18:37;;;;;;;0.90;0.70;;;;;;;19.66;67.89;101885.28;6204622;28;20054;-77
2022/06/28 11:21:39;;;;;;;0.88;0.80;;;;;;;19.71;68.24;101886.66;6204673;28;20522;-78
2022/06/28 11:24:44;;;;;;;1.20;0.90;;;;;;;19.65;66.78;101888.91;6204120;28;20053;-78
2022/06/28 11:27:47;;;;;;;1.27;1.02;;;;;;;19.71;65.24;101888.44;6179983;28;20043;-78
2022/06/28 11:30:49;;;;;;;0.85;0.73;;;;;;;19.96;66.91;101879.50;6181331;28;20058;-78
2022/06/28 11:33:51;;;;;;;0.70;0.70;;;;;;;20.73;65.72;101880.69;6182208;28;20058;-78
2022/06/28 11:36:55;;;;;;;3.35;0.93;;;;;;;20.70;66.39;101872.91;6174102;28;20066;-78
2022/06/28 11:39:59;;;;;;;0.85;0.85;;;;;;;20.52;64.52;101867.16;6180334;28;20106;-78
2022/06/28 11:43:03;;;;;;;0.77;0.77;;;;;;;20.67;64.25;101869.66;6180732;28;20074;-78
2022/06/28 11:46:04;;;;;;;1.67;0.80;;;;;;;20.64;64.36;101859.19;6176740;28;20065;-78
2022/06/28 11:49:07;;;;;;;2.30;1.00;;;;;;;21.13;62.78;101868.69;6176111;28;20049;-78
2022/06/28 11:52:14;;;;;;;0.55;0.55;;;;;;;21.39;55.79;101861.25;6172860;28;20495;-77
2022/06/28 11:55:16;;;;;;;0.73;0.50;;;;;;;21.46;60.39;101854.44;6164892;28;20062;-77
2022/06/28 11:58:19;;;;;;;1.25;0.52;;;;;;;21.24;61.71;101866.81;6155063;28;20051;-77
2022/06/28 12:01:22;;;;;;;2.38;0.90;;;;;;;21.78;58.84;101851.75;6152771;28;20433;-77
2022/06/28 12:04:26;;;;;;;0.60;0.60;;;;;;;22.61;56.42;101855.47;6154244;28;20059;-77
2022/06/28 12:07:33;;;;;;;0.77;0.75;;;;;;;23.06;55.25;101855.13;6154598;28;20065;-77
2022/06/28 12:10:34;;;;;;;1.00;0.70;;;;;;;22.68;56.34;101853.97;6169394;28;20058;-77
2022/06/28 12:13:36;;;;;;;2.15;0.98;;;;;;;21.96;55.95;101844.03;6168379;28;20610;-77
2022/06/28 12:16:39;;;;;;;1.02;0.90;;;;;;;21.92;60.24;101850.63;6171200;28;20055;-78
2022/06/28 12:19:42;;;;;;;3.13;0.60;;;;;;;22.84;56.26;101857.00;6173569;28;20051;-78
2022/06/28 12:22:54;;;;;;;2.75;0.80;;;;;;;23.58;55.90;101856.69;6180113;28;20544;-78
2022/06/28 12:26:00;;;;;;;1.92;0.73;;;;;;;23.95;51.34;101846.13;6171041;28;20042;-77
2022/06/28 12:29:01;;;;;;;1.33;0.98;;;;;;;24.07;46.59;101844.13;6175402;28;20051;-78
2022/06/28 12:32:03;;;;;;;1.52;0.60;;;;;;;24.44;49.96;101851.47;6154725;28;20051;-78
2022/06/28 12:35:09;;;;;;;0.98;0.65;;;;;;;24.75;48.20;101841.28;6155649;28;20051;-78
2022/06/28 12:38:10;;;;;;;0.55;0.55;;;;;;;24.91;46.88;101838.00;6155060;28;20051;-78
2022/06/28 12:41:11;;;;;;;0.85;0.45;;;;;;;24.98;44.74;101839.06;6162985;28;20513;-77
2022/06/28 12:44:12;;;;;;;1.17;0.60;;;;;;;25.03;45.08;101840.34;6173134;28;20043;-77
2022/06/28 12:47:15;;;;;;;0.85;0.50;;;;;;;25.23;43.35;101832.19;6151837;28;20059;-77
2022/06/28 12:50:18;;;;;;;0.50;0.40;;;;;;;25.31;42.52;101834.97;6175113;28;20065;-77
2022/06/28 12:53:21;;;;;;;0.40;0.40;;;;;;;25.11;39.03;101822.63;6163059;28;20500;-77
2022/06/28 12:56:22;;;;;;;0.82;0.50;;;;;;;24.84;38.58;101831.50;6170952;28;20046;-78
2022/06/28 12:59:23;;;;;;;0.63;0.30;;;;;;;25.00;43.22;101826.34;6168377;28;20052;-77
2022/06/28 13:02:25;;;;;;;2.45;0.40;;;;;;;25.23;40.91;101821.41;6173371;28;20054;-77
2022/06/28 13:05:28;;;;;;;1.10;0.70;;;;;;;25.07;38.82;101805.88;6164905;28;20054;-77
2022/06/28 13:08:29;;;;;;;0.63;0.50;;;;;;;25.33;42.71;101813.28;6170594;28;20051;-77
2022/06/28 13:11:30;;;;;;;1.48;0.50;;;;;;;25.67;38.97;101808.91;6173192;28;20078;-77
2022/06/28 13:14:31;;;;;;;2.00;0.45;;;;;;;25.78;40.00;101797.06;6177746;28;20127;-78
2022/06/28 13:17:33;;;;;;;0.88;0.50;;;;;;;25.72;37.50;101795.00;6177116;28;20054;-77
2022/06/28 13:20:35;;;;;;;0.93;0.40;;;;;;;25.70;40.78;101799.66;6150640;28;20504;-77
2022/06/28 13:23:37;;;;;;;0.68;0.63;;;;;;;25.66;40.25;101799.16;6175248;28;20057;-77
2022/06/28 13:26:39;;;;;;;0.80;0.50;;;;;;;26.02;40.99;101797.25;6161082;28;20057;-77
2022/06/28 13:29:40;;;;;;;0.88;0.50;;;;;;;26.18;38.01;101788.47;6177407;28;20052;-78
2022/06/28 13:32:42;;;;;;;0.60;0.60;;;;;;;26.29;37.56;101781.94;6168945;28;20054;-77
2022/06/28 13:35:45;;;;;;;3.00;0.60;;;;;;;26.40;37.57;101780.84;6170056;28;20047;-77
2022/06/28 13:38:46;;;;;;;0.28;0.20;;;;;;;26.45;35.67;101778.53;6174292;28;20392;-77
2022/06/28 13:41:47;;;;;;;0.38;0.38;;;;;;;26.07;36.27;101769.84;6160687;28;20058;-78
2022/06/28 13:44:49;;;;;;;1.45;0.40;;;;;;;25.71;36.49;101756.44;6179533;28;20046;-77
2022/06/28 13:47:50;;;;;;;2.17;0.52;;;;;;;25.22;36.61;101761.38;6176404;28;20513;-78
2022/06/28 13:50:53;;;;;;;0.47;0.30;;;;;;;25.68;38.18;101759.44;6178820;28;20050;-78
2022/06/28 13:53:54;;;;;;;2.28;0.80;;;;;;;25.67;37.15;101752.38;6173793;28;20055;-78
2022/06/28 13:56:55;;;;;;;0.30;0.30;;;;;;;25.97;36.12;101745.72;6153293;28;20058;-78
2022/06/28 13:59:57;;;;;;;0.63;0.38;;;;;;;25.92;36.75;101749.88;6174348;28;20051;-78
2022/06/28 14:02:58;;;;;;;2.13;0.40;;;;;;;25.97;36.89;101751.09;6152736;29;20047;-78
2022/06/28 14:06:01;;;;;;;1.33;0.43;;;;;;;25.66;36.65;101750.69;6152241;28;20406;-78
2022/06/28 14:09:03;;;;;;;0.60;0.60;;;;;;;25.78;38.62;101745.91;6160765;28;20135;-79
2022/06/28 14:12:05;;;;;;;0.85;0.45;;;;;;;26.15;36.81;101739.41;6202782;28;20053;-78
2022/06/28 14:15:08;;;;;;;1.23;0.55;;;;;;;26.31;39.10;101740.38;6201620;28;20046;-78
2022/06/28 14:18:09;;;;;;;0.38;0.30;;;;;;;26.21;36.90;101742.34;6201935;28;20061;-78
2022/06/28 14:21:13;;;;;;;0.30;0.30;;;;;;;25.64;35.54;101738.38;6202173;28;20058;-78
2022/06/28 14:24:14;;;;;;;0.77;0.40;;;;;;;25.68;40.03;101748.66;6200563;28;20102;-78
2022/06/28 14:27:15;;;;;;;0.40;0.40;;;;;;;26.16;37.45;101741.09;6174180;28;20057;-78
2022/06/28 14:30:17;;;;;;;0.43;0.40;;;;;;;25.93;34.49;101738.94;6166938;28;20454;-77
2022/06/28 14:33:18;;;;;;;0.80;0.43;;;;;;;25.94;37.38;101739.81;6180851;28;20062;-78
2022/06/28 14:36:21;;;;;;;0.30;0.30;;;;;;;25.48;38.62;101744.44;6175945;28;20046;-78
2022/06/28 14:39:22;;;;;;;0.30;0.30;;;;;;;24.91;38.12;101747.41;6174315;28;20208;-78
2022/06/28 14:42:24;;;;;;;0.30;0.30;;;;;;;24.91;37.92;101746.56;6177743;28;20051;-78
2022/06/28 14:45:27;;;;;;;2.03;0.50;;;;;;;24.93;40.27;101742.69;6175104;28;20043;-78
2022/06/28 14:48:28;;;;;;;0.80;0.50;;;;;;;24.92;38.73;101749.09;6179920;28;20050;-77
2022/06/28 14:51:31;;;;;;;1.20;0.50;;;;;;;25.11;40.74;101747.28;6179139;28;20047;-78
2022/06/28 14:54:33;;;;;;;2.67;0.50;;;;;;;25.29;40.04;101738.22;6179860;28;20090;-78
2022/06/28 14:57:34;;;;;;;0.43;0.30;;;;;;;25.26;39.54;101737.72;6182002;28;20047;-78
2022/06/28 15:00:36;;;;;;;0.50;0.43;;;;;;;25.02;37.41;101738.25;6171781;28;20442;-78
2022/06/28 15:03:37;;;;;;;2.30;0.47;;;;;;;24.84;39.40;101732.84;6177639;28;20047;-78
2022/06/28 15:06:40;;;;;;;1.90;0.52;;;;;;;24.51;38.28;101729.78;6174603;28;20043;-78
2022/06/28 15:09:41;;;;;;;0.40;0.40;;;;;;;24.69;41.48;101726.28;6182904;28;20065;-78
2022/06/28 15:12:43;;;;;;;4.35;0.40;;;;;;;24.98;39.55;101726.97;6158115;29;20061;-79
2022/06/28 15:15:45;;;;;;;0.55;0.50;;;;;;;25.05;39.53;101721.81;6158612;29;20121;-78
2022/06/28 15:18:46;;;;;;;0.85;0.50;;;;;;;25.32;40.23;101725.47;6167918;28;20054;-79
2022/06/28 15:31:47;;;;;;;0.50;0.50;;;;;;;24.79;38.08;101721.69;6166378;28;20122;-78
2022/06/28 15:34:48;;;;;;;0.40;0.40;;;;;;;24.95;39.20;101716.50;6177354;28;20051;-77
2022/06/28 15:37:51;;;;;;;0.40;0.30;;;;;;;25.07;39.10;101711.75;6192121;28;20054;-77
2022/06/28 15:40:53;;;;;;;0.98;0.35;;;;;;;25.05;37.55;101705.69;6181581;28;20058;-77
2022/06/28 15:43:54;;;;;;;0.75;0.40;;;;;;;25.00;38.40;101703.44;6177275;28;20091;-75
2022/06/28 15:46:56;;;;;;;0.40;0.35;;;;;;;24.70;38.24;101698.41;6174843;28;20051;-78